sensor_id;sensor_type;location;lat;lon;timestamp;temperature;humidity
3334;DHT22;1679;50.392;8.008;2023-03-14T00:00:57;11.10;99.90
3334;DHT22;1679;50.392;8.008;2023-03-14T00:03:25;11.00;99.90
3334;DHT22;1679;50.392;8.008;2023-03-14T00:05:50;11.00;99.90
3334;DHT22;1679;50.392;8.008;2023-03-14T00:08:16;11.00;99.90
3334;DHT22;1679;50.392;8.008;2023-03-14T00:10:41;11.00;99.90
3334;DHT22;1679;50.392;8.008;2023-03-14T00:13:07;11.00;99.90
3334;DHT22;1679;50.392;8.008;2023-03-14T00:15:36;11.00;99.90
3334;DHT22;1679;50.392;8.008;2023-03-14T00:18:01;11.00;99.90
3334;DHT22;1679;50.392;8.008;2023-03-14T00:20:27;11.00;99.90
3334;DHT22;1679;50.392;8.008;2023-03-14T00:22:52;11.00;99.90
3334;DHT22;1679;50.392;8.008;2023-03-14T00:25:18;11.00;99.90
3334;DHT22;1679;50.392;8.008;2023-03-14T00:27:43;11.00;99.90
3334;DHT22;1679;50.392;8.008;2023-03-14T00:30:10;11.00;99.90
3334;DHT22;1679;50.392;8.008;2023-03-14T00:32:35;11.00;99.90
3334;DHT22;1679;50.392;8.008;2023-03-14T00:35:01;11.00;99.90
3334;DHT22;1679;50.392;8.008;2023-03-14T00:37:28;11.00;99.90
3334;DHT22;1679;50.392;8.008;2023-03-14T00:39:54;11.00;99.90
3334;DHT22;1679;50.392;8.008;2023-03-14T00:42:19;11.00;99.90
3334;DHT22;1679;50.392;8.008;2023-03-14T00:44:45;11.00;99.90
3334;DHT22;1679;50.392;8.008;2023-03-14T00:47:10;11.00;99.90
3334;DHT22;1679;50.392;8.008;2023-03-14T00:49:36;11.00;99.90
3334;DHT22;1679;50.392;8.008;2023-03-14T00:52:01;11.00;99.90
3334;DHT22;1679;50.392;8.008;2023-03-14T00:54:27;11.00;99.90
3334;DHT22;1679;50.392;8.008;2023-03-14T00:56:52;11.00;99.90
3334;DHT22;1679;50.392;8.008;2023-03-14T00:59:18;11.00;99.90
3334;DHT22;1679;50.392;8.008;2023-03-14T01:01:43;11.10;99.90
3334;DHT22;1679;50.392;8.008;2023-03-14T01:04:09;11.10;99.90
3334;DHT22;1679;50.392;8.008;2023-03-14T01:06:35;11.00;99.90
3334;DHT22;1679;50.392;8.008;2023-03-14T01:09:00;10.90;99.90
3334;DHT22;1679;50.392;8.008;2023-03-14T01:11:29;10.80;99.90
3334;DHT22;1679;50.392;8.008;2023-03-14T01:13:55;10.60;99.90
3334;DHT22;1679;50.392;8.008;2023-03-14T01:16:23;10.50;99.90
3334;DHT22;1679;50.392;8.008;2023-03-14T01:18:49;10.50;99.90
3334;DHT22;1679;50.392;8.008;2023-03-14T01:21:21;10.40;99.90
3334;DHT22;1679;50.392;8.008;2023-03-14T01:23:47;10.40;99.90
3334;DHT22;1679;50.392;8.008;2023-03-14T01:26:17;10.30;99.90
3334;DHT22;1679;50.392;8.008;2023-03-14T01:28:45;10.40;99.90
3334;DHT22;1679;50.392;8.008;2023-03-14T01:31:12;10.30;99.90
3334;DHT22;1679;50.392;8.008;2023-03-14T01:33:38;10.30;99.90
3334;DHT22;1679;50.392;8.008;2023-03-14T01:36:04;10.30;99.90
3334;DHT22;1679;50.392;8.008;2023-03-14T01:38:32;10.40;99.90
3334;DHT22;1679;50.392;8.008;2023-03-14T01:40:58;10.40;99.90
3334;DHT22;1679;50.392;8.008;2023-03-14T01:43:24;10.40;99.90
3334;DHT22;1679;50.392;8.008;2023-03-14T01:51:11;10.40;99.90
3334;DHT22;1679;50.392;8.008;2023-03-14T01:53:39;10.40;99.90
3334;DHT22;1679;50.392;8.008;2023-03-14T01:56:07;10.40;99.90
3334;DHT22;1679;50.392;8.008;2023-03-14T01:58:33;10.50;99.90
3334;DHT22;1679;50.392;8.008;2023-03-14T02:01:03;10.50;99.90
3334;DHT22;1679;50.392;8.008;2023-03-14T02:03:31;10.60;99.90
3334;DHT22;1679;50.392;8.008;2023-03-14T02:06:03;10.60;99.90
3334;DHT22;1679;50.392;8.008;2023-03-14T02:08:31;10.60;99.90
3334;DHT22;1679;50.392;8.008;2023-03-14T02:10:58;10.60;99.90
3334;DHT22;1679;50.392;8.008;2023-03-14T02:13:24;10.60;99.90
3334;DHT22;1679;50.392;8.008;2023-03-14T02:15:49;10.60;99.90
3334;DHT22;1679;50.392;8.008;2023-03-14T02:18:16;10.60;99.90
3334;DHT22;1679;50.392;8.008;2023-03-14T02:26:27;10.50;99.90
3334;DHT22;1679;50.392;8.008;2023-03-14T02:28:53;10.40;99.90
3334;DHT22;1679;50.392;8.008;2023-03-14T02:31:21;10.40;99.90
3334;DHT22;1679;50.392;8.008;2023-03-14T02:33:47;10.40;99.90
3334;DHT22;1679;50.392;8.008;2023-03-14T02:36:14;10.40;99.90
3334;DHT22;1679;50.392;8.008;2023-03-14T02:38:53;10.40;99.90
3334;DHT22;1679;50.392;8.008;2023-03-14T02:41:22;10.40;99.90
3334;DHT22;1679;50.392;8.008;2023-03-14T02:43:47;10.40;99.90
3334;DHT22;1679;50.392;8.008;2023-03-14T02:46:18;10.30;99.90
3334;DHT22;1679;50.392;8.008;2023-03-14T02:49:02;10.30;99.90
3334;DHT22;1679;50.392;8.008;2023-03-14T02:51:28;10.30;99.90
3334;DHT22;1679;50.392;8.008;2023-03-14T02:53:54;10.30;99.90
3334;DHT22;1679;50.392;8.008;2023-03-14T02:56:21;10.30;99.90
3334;DHT22;1679;50.392;8.008;2023-03-14T02:58:47;10.30;99.90
3334;DHT22;1679;50.392;8.008;2023-03-14T03:01:13;10.30;99.90
3334;DHT22;1679;50.392;8.008;2023-03-14T03:03:38;10.20;99.90
3334;DHT22;1679;50.392;8.008;2023-03-14T03:06:04;10.20;99.90
3334;DHT22;1679;50.392;8.008;2023-03-14T03:08:31;10.10;99.90
3334;DHT22;1679;50.392;8.008;2023-03-14T03:10:57;10.10;99.90
3334;DHT22;1679;50.392;8.008;2023-03-14T03:13:23;10.10;99.90
3334;DHT22;1679;50.392;8.008;2023-03-14T03:15:49;10.10;99.90
3334;DHT22;1679;50.392;8.008;2023-03-14T03:18:16;10.00;99.90
3334;DHT22;1679;50.392;8.008;2023-03-14T03:20:43;10.00;99.90
3334;DHT22;1679;50.392;8.008;2023-03-14T03:23:08;10.00;99.90
3334;DHT22;1679;50.392;8.008;2023-03-14T03:25:35;10.00;99.90
3334;DHT22;1679;50.392;8.008;2023-03-14T03:28:01;10.00;99.90
3334;DHT22;1679;50.392;8.008;2023-03-14T03:30:28;10.00;99.90
3334;DHT22;1679;50.392;8.008;2023-03-14T03:32:53;10.00;99.90
3334;DHT22;1679;50.392;8.008;2023-03-14T03:35:19;9.90;99.90
3334;DHT22;1679;50.392;8.008;2023-03-14T03:37:45;9.90;99.90
3334;DHT22;1679;50.392;8.008;2023-03-14T03:40:11;9.90;99.90
3334;DHT22;1679;50.392;8.008;2023-03-14T03:42:36;9.90;99.90
3334;DHT22;1679;50.392;8.008;2023-03-14T03:45:03;9.90;99.90
3334;DHT22;1679;50.392;8.008;2023-03-14T03:47:30;9.80;99.90
3334;DHT22;1679;50.392;8.008;2023-03-14T03:49:56;9.80;99.90
3334;DHT22;1679;50.392;8.008;2023-03-14T03:52:22;9.80;99.90
3334;DHT22;1679;50.392;8.008;2023-03-14T03:54:47;9.80;99.90
3334;DHT22;1679;50.392;8.008;2023-03-14T03:57:13;9.80;99.90
3334;DHT22;1679;50.392;8.008;2023-03-14T03:59:39;9.80;99.90
3334;DHT22;1679;50.392;8.008;2023-03-14T04:02:08;9.90;99.90
3334;DHT22;1679;50.392;8.008;2023-03-14T04:04:33;10.00;99.90
3334;DHT22;1679;50.392;8.008;2023-03-14T04:06:59;10.00;99.90
3334;DHT22;1679;50.392;8.008;2023-03-14T04:09:25;10.00;99.90
3334;DHT22;1679;50.392;8.008;2023-03-14T04:11:51;10.10;99.90
3334;DHT22;1679;50.392;8.008;2023-03-14T04:14:17;10.10;99.90
3334;DHT22;1679;50.392;8.008;2023-03-14T04:16:42;10.10;99.90
3334;DHT22;1679;50.392;8.008;2023-03-14T04:19:08;10.10;99.90
3334;DHT22;1679;50.392;8.008;2023-03-14T04:21:33;10.10;99.90
3334;DHT22;1679;50.392;8.008;2023-03-14T04:24:00;10.20;99.90
3334;DHT22;1679;50.392;8.008;2023-03-14T04:26:27;10.20;99.90
3334;DHT22;1679;50.392;8.008;2023-03-14T04:28:52;10.20;99.90
3334;DHT22;1679;50.392;8.008;2023-03-14T04:31:20;10.20;99.90
3334;DHT22;1679;50.392;8.008;2023-03-14T04:33:46;10.20;99.90
3334;DHT22;1679;50.392;8.008;2023-03-14T04:36:12;10.20;99.90
3334;DHT22;1679;50.392;8.008;2023-03-14T04:38:38;10.20;99.90
3334;DHT22;1679;50.392;8.008;2023-03-14T04:41:04;10.20;99.90
3334;DHT22;1679;50.392;8.008;2023-03-14T04:43:29;10.20;99.90
3334;DHT22;1679;50.392;8.008;2023-03-14T04:45:56;10.20;99.90
3334;DHT22;1679;50.392;8.008;2023-03-14T04:48:23;10.10;99.90
3334;DHT22;1679;50.392;8.008;2023-03-14T04:50:49;10.10;99.90
3334;DHT22;1679;50.392;8.008;2023-03-14T04:53:16;10.20;99.90
3334;DHT22;1679;50.392;8.008;2023-03-14T04:55:41;10.20;99.90
3334;DHT22;1679;50.392;8.008;2023-03-14T04:58:07;10.20;99.90
3334;DHT22;1679;50.392;8.008;2023-03-14T05:00:33;10.10;99.90
3334;DHT22;1679;50.392;8.008;2023-03-14T05:02:58;10.20;99.90
3334;DHT22;1679;50.392;8.008;2023-03-14T05:05:24;10.20;99.90
3334;DHT22;1679;50.392;8.008;2023-03-14T05:07:50;10.20;99.90
3334;DHT22;1679;50.392;8.008;2023-03-14T05:10:15;10.20;99.90
3334;DHT22;1679;50.392;8.008;2023-03-14T05:12:41;10.20;99.90
3334;DHT22;1679;50.392;8.008;2023-03-14T05:15:07;10.20;99.90
3334;DHT22;1679;50.392;8.008;2023-03-14T05:17:33;10.20;99.90
3334;DHT22;1679;50.392;8.008;2023-03-14T05:19:59;10.20;99.90
3334;DHT22;1679;50.392;8.008;2023-03-14T05:22:25;10.20;99.90
3334;DHT22;1679;50.392;8.008;2023-03-14T05:24:50;10.20;99.90
3334;DHT22;1679;50.392;8.008;2023-03-14T05:27:16;10.20;99.90
3334;DHT22;1679;50.392;8.008;2023-03-14T05:29:42;10.20;99.90
3334;DHT22;1679;50.392;8.008;2023-03-14T05:32:08;10.20;99.90
3334;DHT22;1679;50.392;8.008;2023-03-14T05:34:33;10.20;99.90
3334;DHT22;1679;50.392;8.008;2023-03-14T05:36:59;10.10;99.90
3334;DHT22;1679;50.392;8.008;2023-03-14T05:39:25;10.20;99.90
3334;DHT22;1679;50.392;8.008;2023-03-14T05:41:52;10.10;99.90
3334;DHT22;1679;50.392;8.008;2023-03-14T05:44:20;10.10;99.90
3334;DHT22;1679;50.392;8.008;2023-03-14T05:46:46;10.10;99.90
3334;DHT22;1679;50.392;8.008;2023-03-14T05:49:11;10.10;99.90
3334;DHT22;1679;50.392;8.008;2023-03-14T05:51:36;10.10;99.90
3334;DHT22;1679;50.392;8.008;2023-03-14T05:54:02;10.00;99.90
3334;DHT22;1679;50.392;8.008;2023-03-14T05:56:27;9.90;99.90
3334;DHT22;1679;50.392;8.008;2023-03-14T05:58:53;9.90;99.90
3334;DHT22;1679;50.392;8.008;2023-03-14T06:01:20;9.80;99.90
3334;DHT22;1679;50.392;8.008;2023-03-14T06:03:45;9.80;99.90
3334;DHT22;1679;50.392;8.008;2023-03-14T06:06:11;9.70;99.90
3334;DHT22;1679;50.392;8.008;2023-03-14T06:08:36;9.70;99.90
3334;DHT22;1679;50.392;8.008;2023-03-14T06:11:03;9.70;99.90
3334;DHT22;1679;50.392;8.008;2023-03-14T06:13:31;9.70;99.90
3334;DHT22;1679;50.392;8.008;2023-03-14T06:15:56;9.70;99.90
3334;DHT22;1679;50.392;8.008;2023-03-14T06:18:21;9.70;99.90
3334;DHT22;1679;50.392;8.008;2023-03-14T06:20:47;9.60;99.90
3334;DHT22;1679;50.392;8.008;2023-03-14T06:23:14;9.60;99.90
3334;DHT22;1679;50.392;8.008;2023-03-14T06:25:41;9.60;99.90
3334;DHT22;1679;50.392;8.008;2023-03-14T06:28:06;9.60;99.90
3334;DHT22;1679;50.392;8.008;2023-03-14T06:30:32;9.70;99.90
3334;DHT22;1679;50.392;8.008;2023-03-14T06:32:57;9.70;99.90
3334;DHT22;1679;50.392;8.008;2023-03-14T06:35:23;9.70;99.90
3334;DHT22;1679;50.392;8.008;2023-03-14T06:37:48;9.70;99.90
3334;DHT22;1679;50.392;8.008;2023-03-14T06:40:18;9.70;99.90
3334;DHT22;1679;50.392;8.008;2023-03-14T06:42:44;9.70;99.90
3334;DHT22;1679;50.392;8.008;2023-03-14T06:45:10;9.80;99.90
3334;DHT22;1679;50.392;8.008;2023-03-14T06:47:36;9.90;99.90
3334;DHT22;1679;50.392;8.008;2023-03-14T06:50:08;10.00;99.90
3334;DHT22;1679;50.392;8.008;2023-03-14T06:52:36;10.10;99.90
3334;DHT22;1679;50.392;8.008;2023-03-14T06:55:03;10.20;99.90
3334;DHT22;1679;50.392;8.008;2023-03-14T06:57:29;10.30;99.90
3334;DHT22;1679;50.392;8.008;2023-03-14T06:59:55;10.30;99.90
3334;DHT22;1679;50.392;8.008;2023-03-14T07:02:20;10.30;99.90
3334;DHT22;1679;50.392;8.008;2023-03-14T07:04:47;10.40;99.90
3334;DHT22;1679;50.392;8.008;2023-03-14T07:07:12;10.40;99.90
3334;DHT22;1679;50.392;8.008;2023-03-14T07:09:38;10.40;99.90
3334;DHT22;1679;50.392;8.008;2023-03-14T07:12:04;10.50;99.90
3334;DHT22;1679;50.392;8.008;2023-03-14T07:14:30;10.50;99.90
3334;DHT22;1679;50.392;8.008;2023-03-14T07:16:56;10.50;99.90
3334;DHT22;1679;50.392;8.008;2023-03-14T07:19:22;10.50;99.90
3334;DHT22;1679;50.392;8.008;2023-03-14T07:21:47;10.50;99.90
3334;DHT22;1679;50.392;8.008;2023-03-14T07:24:13;10.40;99.90
3334;DHT22;1679;50.392;8.008;2023-03-14T07:26:39;10.40;99.90
3334;DHT22;1679;50.392;8.008;2023-03-14T07:29:04;10.40;99.90
3334;DHT22;1679;50.392;8.008;2023-03-14T07:31:30;10.50;99.90
3334;DHT22;1679;50.392;8.008;2023-03-14T07:33:56;10.60;99.90
3334;DHT22;1679;50.392;8.008;2023-03-14T07:36:22;10.60;99.90
3334;DHT22;1679;50.392;8.008;2023-03-14T07:38:47;10.60;99.90
3334;DHT22;1679;50.392;8.008;2023-03-14T07:41:13;10.60;99.90
3334;DHT22;1679;50.392;8.008;2023-03-14T07:43:39;10.60;99.90
3334;DHT22;1679;50.392;8.008;2023-03-14T07:46:05;10.60;99.90
3334;DHT22;1679;50.392;8.008;2023-03-14T07:48:30;10.70;99.90
3334;DHT22;1679;50.392;8.008;2023-03-14T07:50:56;10.70;99.90
3334;DHT22;1679;50.392;8.008;2023-03-14T07:53:22;10.80;99.90
3334;DHT22;1679;50.392;8.008;2023-03-14T07:55:48;10.80;99.90
3334;DHT22;1679;50.392;8.008;2023-03-14T07:58:15;10.80;99.90
3334;DHT22;1679;50.392;8.008;2023-03-14T08:00:42;10.90;99.90
3334;DHT22;1679;50.392;8.008;2023-03-14T08:03:08;11.00;99.90
3334;DHT22;1679;50.392;8.008;2023-03-14T08:05:35;11.20;99.90
3334;DHT22;1679;50.392;8.008;2023-03-14T08:08:01;11.30;99.90
3334;DHT22;1679;50.392;8.008;2023-03-14T08:10:27;11.40;99.90
3334;DHT22;1679;50.392;8.008;2023-03-14T08:12:55;11.50;99.90
3334;DHT22;1679;50.392;8.008;2023-03-14T08:15:22;11.60;99.90
3334;DHT22;1679;50.392;8.008;2023-03-14T08:17:48;11.60;99.90
3334;DHT22;1679;50.392;8.008;2023-03-14T08:20:17;11.70;99.90
3334;DHT22;1679;50.392;8.008;2023-03-14T08:22:42;11.70;99.90
3334;DHT22;1679;50.392;8.008;2023-03-14T08:25:08;11.80;99.90
3334;DHT22;1679;50.392;8.008;2023-03-14T08:27:34;11.70;99.90
3334;DHT22;1679;50.392;8.008;2023-03-14T08:30:00;11.70;99.90
3334;DHT22;1679;50.392;8.008;2023-03-14T08:32:26;11.70;99.90
3334;DHT22;1679;50.392;8.008;2023-03-14T08:34:52;11.80;99.90
3334;DHT22;1679;50.392;8.008;2023-03-14T08:37:17;11.80;99.90
3334;DHT22;1679;50.392;8.008;2023-03-14T08:39:44;11.70;99.90
3334;DHT22;1679;50.392;8.008;2023-03-14T08:42:10;11.70;99.90
3334;DHT22;1679;50.392;8.008;2023-03-14T08:44:35;11.70;99.90
3334;DHT22;1679;50.392;8.008;2023-03-14T08:47:01;11.80;99.90
3334;DHT22;1679;50.392;8.008;2023-03-14T08:49:26;12.00;99.90
3334;DHT22;1679;50.392;8.008;2023-03-14T08:51:52;12.20;99.90
3334;DHT22;1679;50.392;8.008;2023-03-14T08:54:17;12.20;99.90
3334;DHT22;1679;50.392;8.008;2023-03-14T08:56:43;12.20;99.90
3334;DHT22;1679;50.392;8.008;2023-03-14T08:59:09;12.00;99.90
3334;DHT22;1679;50.392;8.008;2023-03-14T09:01:37;12.00;99.90
3334;DHT22;1679;50.392;8.008;2023-03-14T09:04:02;11.80;99.90
3334;DHT22;1679;50.392;8.008;2023-03-14T09:06:28;11.80;99.90
3334;DHT22;1679;50.392;8.008;2023-03-14T09:08:54;11.80;99.90
3334;DHT22;1679;50.392;8.008;2023-03-14T09:11:19;11.80;99.90
3334;DHT22;1679;50.392;8.008;2023-03-14T09:13:45;11.90;99.90
3334;DHT22;1679;50.392;8.008;2023-03-14T09:16:11;12.10;99.90
3334;DHT22;1679;50.392;8.008;2023-03-14T09:18:37;12.20;99.90
3334;DHT22;1679;50.392;8.008;2023-03-14T09:21:03;12.20;99.90
3334;DHT22;1679;50.392;8.008;2023-03-14T09:23:30;12.20;99.90
3334;DHT22;1679;50.392;8.008;2023-03-14T09:25:56;12.00;99.90
3334;DHT22;1679;50.392;8.008;2023-03-14T09:28:23;12.00;99.90
3334;DHT22;1679;50.392;8.008;2023-03-14T09:30:49;12.00;99.90
3334;DHT22;1679;50.392;8.008;2023-03-14T09:33:15;12.00;99.90
3334;DHT22;1679;50.392;8.008;2023-03-14T09:35:41;12.00;99.90
3334;DHT22;1679;50.392;8.008;2023-03-14T09:38:06;12.00;99.90
3334;DHT22;1679;50.392;8.008;2023-03-14T09:40:35;12.00;99.90
3334;DHT22;1679;50.392;8.008;2023-03-14T09:43:00;12.10;99.90
3334;DHT22;1679;50.392;8.008;2023-03-14T09:45:36;12.10;99.90
3334;DHT22;1679;50.392;8.008;2023-03-14T09:48:04;12.30;99.90
3334;DHT22;1679;50.392;8.008;2023-03-14T09:50:44;12.40;99.90
3334;DHT22;1679;50.392;8.008;2023-03-14T09:53:14;12.50;99.90
3334;DHT22;1679;50.392;8.008;2023-03-14T09:55:42;12.50;99.90
3334;DHT22;1679;50.392;8.008;2023-03-14T09:58:19;12.50;99.90
3334;DHT22;1679;50.392;8.008;2023-03-14T10:00:45;12.50;99.90
3334;DHT22;1679;50.392;8.008;2023-03-14T10:05:41;12.50;99.90
3334;DHT22;1679;50.392;8.008;2023-03-14T10:08:12;12.60;99.90
3334;DHT22;1679;50.392;8.008;2023-03-14T10:10:38;12.50;99.90
3334;DHT22;1679;50.392;8.008;2023-03-14T10:15:37;12.10;99.90
3334;DHT22;1679;50.392;8.008;2023-03-14T10:18:04;11.90;99.90
3334;DHT22;1679;50.392;8.008;2023-03-14T10:20:41;11.80;99.90
3334;DHT22;1679;50.392;8.008;2023-03-14T10:25:38;11.60;99.90
3334;DHT22;1679;50.392;8.008;2023-03-14T10:28:05;11.60;99.90
3334;DHT22;1679;50.392;8.008;2023-03-14T10:38:34;11.50;99.90
3334;DHT22;1679;50.392;8.008;2023-03-14T10:41:00;11.50;99.90
3334;DHT22;1679;50.392;8.008;2023-03-14T10:43:31;11.50;99.90
3334;DHT22;1679;50.392;8.008;2023-03-14T10:46:00;11.50;99.90
3334;DHT22;1679;50.392;8.008;2023-03-14T10:48:33;11.60;99.90
3334;DHT22;1679;50.392;8.008;2023-03-14T10:51:09;11.60;99.90
3334;DHT22;1679;50.392;8.008;2023-03-14T10:56:26;11.50;99.90
3334;DHT22;1679;50.392;8.008;2023-03-14T10:58:54;11.50;99.90
3334;DHT22;1679;50.392;8.008;2023-03-14T11:01:37;11.40;99.90
3334;DHT22;1679;50.392;8.008;2023-03-14T11:07:31;11.40;99.90
3334;DHT22;1679;50.392;8.008;2023-03-14T11:12:45;11.20;99.90
3334;DHT22;1679;50.392;8.008;2023-03-14T11:15:25;10.90;99.90
3334;DHT22;1679;50.392;8.008;2023-03-14T11:20:54;9.40;99.90
3334;DHT22;1679;50.392;8.008;2023-03-14T11:23:23;9.10;99.90
3334;DHT22;1679;50.392;8.008;2023-03-14T11:26:07;8.80;99.90
3334;DHT22;1679;50.392;8.008;2023-03-14T11:28:40;8.50;99.90
3334;DHT22;1679;50.392;8.008;2023-03-14T11:31:31;8.30;99.90
3334;DHT22;1679;50.392;8.008;2023-03-14T11:34:17;8.20;99.90
3334;DHT22;1679;50.392;8.008;2023-03-14T11:36:51;8.10;99.90
3334;DHT22;1679;50.392;8.008;2023-03-14T11:39:20;8.00;99.90
3334;DHT22;1679;50.392;8.008;2023-03-14T11:41:51;8.10;99.90
3334;DHT22;1679;50.392;8.008;2023-03-14T11:44:30;8.10;99.90
3334;DHT22;1679;50.392;8.008;2023-03-14T11:47:10;8.20;99.90
3334;DHT22;1679;50.392;8.008;2023-03-14T11:49:45;8.20;99.90
3334;DHT22;1679;50.392;8.008;2023-03-14T11:52:24;8.10;99.90
3334;DHT22;1679;50.392;8.008;2023-03-14T11:54:55;8.00;99.90
3334;DHT22;1679;50.392;8.008;2023-03-14T11:57:22;7.90;99.90
3334;DHT22;1679;50.392;8.008;2023-03-14T11:59:58;7.90;99.90
3334;DHT22;1679;50.392;8.008;2023-03-14T12:02:26;7.90;99.90
3334;DHT22;1679;50.392;8.008;2023-03-14T12:10:51;8.20;99.90
3334;DHT22;1679;50.392;8.008;2023-03-14T12:13:19;8.30;99.90
3334;DHT22;1679;50.392;8.008;2023-03-14T12:15:57;8.40;99.90
3334;DHT22;1679;50.392;8.008;2023-03-14T12:18:34;8.40;99.90
3334;DHT22;1679;50.392;8.008;2023-03-14T12:21:05;8.50;99.90
3334;DHT22;1679;50.392;8.008;2023-03-14T12:26:17;8.70;99.90
3334;DHT22;1679;50.392;8.008;2023-03-14T12:42:58;9.00;99.90
3334;DHT22;1679;50.392;8.008;2023-03-14T12:45:28;9.20;99.90
3334;DHT22;1679;50.392;8.008;2023-03-14T12:48:23;9.20;99.90
3334;DHT22;1679;50.392;8.008;2023-03-14T12:51:02;9.10;99.90
3334;DHT22;1679;50.392;8.008;2023-03-14T12:53:51;9.00;99.90
3334;DHT22;1679;50.392;8.008;2023-03-14T12:56:26;8.80;99.90
3334;DHT22;1679;50.392;8.008;2023-03-14T13:01:36;8.80;99.90
3334;DHT22;1679;50.392;8.008;2023-03-14T13:04:10;8.80;99.90
3334;DHT22;1679;50.392;8.008;2023-03-14T13:06:55;8.90;99.90
3334;DHT22;1679;50.392;8.008;2023-03-14T13:12:17;8.70;99.90
3334;DHT22;1679;50.392;8.008;2023-03-14T13:14:49;8.70;99.90
3334;DHT22;1679;50.392;8.008;2023-03-14T13:17:22;8.80;99.90
3334;DHT22;1679;50.392;8.008;2023-03-14T13:19:56;9.00;99.90
3334;DHT22;1679;50.392;8.008;2023-03-14T13:22:28;9.20;99.90
3334;DHT22;1679;50.392;8.008;2023-03-14T13:25:05;9.30;99.90
3334;DHT22;1679;50.392;8.008;2023-03-14T13:27:33;9.50;99.90
3334;DHT22;1679;50.392;8.008;2023-03-14T13:30:26;9.30;99.90
3334;DHT22;1679;50.392;8.008;2023-03-14T13:32:53;8.00;99.90
3334;DHT22;1679;50.392;8.008;2023-03-14T13:35:26;7.10;99.90
3334;DHT22;1679;50.392;8.008;2023-03-14T13:37:57;6.70;99.90
3334;DHT22;1679;50.392;8.008;2023-03-14T13:40:32;6.40;99.90
3334;DHT22;1679;50.392;8.008;2023-03-14T13:43:13;6.40;99.90
3334;DHT22;1679;50.392;8.008;2023-03-14T13:45:52;6.50;99.90
3334;DHT22;1679;50.392;8.008;2023-03-14T13:48:19;6.70;99.90
3334;DHT22;1679;50.392;8.008;2023-03-14T13:51:15;6.90;99.90
3334;DHT22;1679;50.392;8.008;2023-03-14T13:53:49;6.90;99.90
3334;DHT22;1679;50.392;8.008;2023-03-14T13:56:19;6.90;99.90
3334;DHT22;1679;50.392;8.008;2023-03-14T13:58:45;7.00;99.90
3334;DHT22;1679;50.392;8.008;2023-03-14T14:03:39;7.20;99.90
3334;DHT22;1679;50.392;8.008;2023-03-14T14:06:16;7.20;99.90
3334;DHT22;1679;50.392;8.008;2023-03-14T14:08:45;7.20;99.90
3334;DHT22;1679;50.392;8.008;2023-03-14T14:11:19;7.20;99.90
3334;DHT22;1679;50.392;8.008;2023-03-14T14:13:46;7.10;99.90
3334;DHT22;1679;50.392;8.008;2023-03-14T14:16:12;7.10;99.90
3334;DHT22;1679;50.392;8.008;2023-03-14T14:18:39;7.20;99.90
3334;DHT22;1679;50.392;8.008;2023-03-14T14:21:05;7.20;99.90
3334;DHT22;1679;50.392;8.008;2023-03-14T14:23:32;7.10;99.90
3334;DHT22;1679;50.392;8.008;2023-03-14T14:25:58;7.10;99.90
3334;DHT22;1679;50.392;8.008;2023-03-14T14:28:33;7.10;99.90
3334;DHT22;1679;50.392;8.008;2023-03-14T14:31:16;6.90;99.90
3334;DHT22;1679;50.392;8.008;2023-03-14T14:36:31;6.30;99.90
3334;DHT22;1679;50.392;8.008;2023-03-14T14:41:33;6.10;99.90
3334;DHT22;1679;50.392;8.008;2023-03-14T14:44:00;5.90;99.90
3334;DHT22;1679;50.392;8.008;2023-03-14T14:46:33;5.70;99.90
3334;DHT22;1679;50.392;8.008;2023-03-14T14:49:09;5.60;99.90
3334;DHT22;1679;50.392;8.008;2023-03-14T14:51:41;5.50;99.90
3334;DHT22;1679;50.392;8.008;2023-03-14T14:54:20;5.50;99.90
3334;DHT22;1679;50.392;8.008;2023-03-14T14:57:03;5.50;99.90
3334;DHT22;1679;50.392;8.008;2023-03-14T14:59:29;5.50;99.90
3334;DHT22;1679;50.392;8.008;2023-03-14T15:02:00;5.50;99.90
3334;DHT22;1679;50.392;8.008;2023-03-14T15:04:26;5.60;99.90
3334;DHT22;1679;50.392;8.008;2023-03-14T15:06:52;5.60;99.90
3334;DHT22;1679;50.392;8.008;2023-03-14T15:09:19;5.50;99.90
3334;DHT22;1679;50.392;8.008;2023-03-14T15:11:46;5.60;99.90
3334;DHT22;1679;50.392;8.008;2023-03-14T15:14:12;5.60;99.90
3334;DHT22;1679;50.392;8.008;2023-03-14T15:16:39;5.60;99.90
3334;DHT22;1679;50.392;8.008;2023-03-14T15:19:21;5.70;99.90
3334;DHT22;1679;50.392;8.008;2023-03-14T15:21:47;5.70;99.90
3334;DHT22;1679;50.392;8.008;2023-03-14T15:24:12;5.80;99.90
3334;DHT22;1679;50.392;8.008;2023-03-14T15:26:38;5.80;99.90
3334;DHT22;1679;50.392;8.008;2023-03-14T15:29:04;5.90;99.90
3334;DHT22;1679;50.392;8.008;2023-03-14T15:31:34;5.90;99.90
3334;DHT22;1679;50.392;8.008;2023-03-14T15:34:00;6.00;99.90
3334;DHT22;1679;50.392;8.008;2023-03-14T15:36:28;5.90;99.90
3334;DHT22;1679;50.392;8.008;2023-03-14T15:38:56;5.80;99.90
3334;DHT22;1679;50.392;8.008;2023-03-14T15:41:22;5.80;99.90
3334;DHT22;1679;50.392;8.008;2023-03-14T15:43:48;5.80;99.90
3334;DHT22;1679;50.392;8.008;2023-03-14T15:46:14;5.80;99.90
3334;DHT22;1679;50.392;8.008;2023-03-14T15:48:41;5.70;99.90
3334;DHT22;1679;50.392;8.008;2023-03-14T15:51:06;5.70;99.90
3334;DHT22;1679;50.392;8.008;2023-03-14T15:53:32;5.70;99.90
3334;DHT22;1679;50.392;8.008;2023-03-14T15:55:58;5.70;99.90
3334;DHT22;1679;50.392;8.008;2023-03-14T15:58:23;5.60;99.90
3334;DHT22;1679;50.392;8.008;2023-03-14T16:00:49;5.60;99.90
3334;DHT22;1679;50.392;8.008;2023-03-14T16:03:15;5.50;99.90
3334;DHT22;1679;50.392;8.008;2023-03-14T16:05:41;5.40;99.90
3334;DHT22;1679;50.392;8.008;2023-03-14T16:08:07;5.30;99.90
3334;DHT22;1679;50.392;8.008;2023-03-14T16:10:33;5.20;99.90
3334;DHT22;1679;50.392;8.008;2023-03-14T16:12:59;5.10;99.90
3334;DHT22;1679;50.392;8.008;2023-03-14T16:15:25;5.10;99.90
3334;DHT22;1679;50.392;8.008;2023-03-14T16:17:53;5.00;99.90
3334;DHT22;1679;50.392;8.008;2023-03-14T16:20:19;5.10;99.90
3334;DHT22;1679;50.392;8.008;2023-03-14T16:22:45;5.10;99.90
3334;DHT22;1679;50.392;8.008;2023-03-14T16:25:11;5.10;99.90
3334;DHT22;1679;50.392;8.008;2023-03-14T16:27:37;5.10;99.90
3334;DHT22;1679;50.392;8.008;2023-03-14T16:30:04;5.10;99.90
3334;DHT22;1679;50.392;8.008;2023-03-14T16:32:29;5.20;99.90
3334;DHT22;1679;50.392;8.008;2023-03-14T16:34:55;5.20;99.90
3334;DHT22;1679;50.392;8.008;2023-03-14T16:37:23;5.20;99.90
3334;DHT22;1679;50.392;8.008;2023-03-14T16:39:49;5.20;99.90
3334;DHT22;1679;50.392;8.008;2023-03-14T16:42:15;5.20;99.90
3334;DHT22;1679;50.392;8.008;2023-03-14T16:44:41;5.20;99.90
3334;DHT22;1679;50.392;8.008;2023-03-14T16:47:07;5.20;99.90
3334;DHT22;1679;50.392;8.008;2023-03-14T16:49:33;5.10;99.90
3334;DHT22;1679;50.392;8.008;2023-03-14T16:51:58;5.00;99.90
3334;DHT22;1679;50.392;8.008;2023-03-14T16:54:24;4.80;99.90
3334;DHT22;1679;50.392;8.008;2023-03-14T16:56:49;4.50;99.90
3334;DHT22;1679;50.392;8.008;2023-03-14T16:59:16;4.30;99.90
3334;DHT22;1679;50.392;8.008;2023-03-14T17:01:42;4.30;99.90
3334;DHT22;1679;50.392;8.008;2023-03-14T17:04:08;4.30;99.90
3334;DHT22;1679;50.392;8.008;2023-03-14T17:06:35;4.30;99.90
3334;DHT22;1679;50.392;8.008;2023-03-14T17:09:01;4.20;99.90
3334;DHT22;1679;50.392;8.008;2023-03-14T17:11:32;4.10;99.90
3334;DHT22;1679;50.392;8.008;2023-03-14T17:13:59;4.10;99.90
3334;DHT22;1679;50.392;8.008;2023-03-14T17:16:25;4.00;99.90
3334;DHT22;1679;50.392;8.008;2023-03-14T17:18:50;4.00;99.90
3334;DHT22;1679;50.392;8.008;2023-03-14T17:21:16;4.00;99.90
3334;DHT22;1679;50.392;8.008;2023-03-14T17:23:42;3.90;99.90
3334;DHT22;1679;50.392;8.008;2023-03-14T17:26:08;3.90;99.90
3334;DHT22;1679;50.392;8.008;2023-03-14T17:28:33;4.00;99.90